Time;durP1;ratioP1;P1;durP2;ratioP2;P2;SDS_P1;SDS_P2;PMS_P1;PMS_P2;Temp;Humidity;BMP_temperature;BMP_pressure;BME280_temperature;BME280_humidity;BME280_pressure;Samples;Min_cycle;Max_cycle;Signal;HPM_P1;HPM_P2
2021/12/06 00:01:02;;;;;;;23.45;14.23;;;2.10;99.90;;;;;;5048220;28;20045;-74
2021/12/06 00:03:46;;;;;;;23.10;14.35;;;2.10;99.90;;;;;;5040821;28;20041;-75
2021/12/06 00:06:14;;;;;;;21.63;14.25;;;2.10;99.90;;;;;;5024823;28;20155;-75
2021/12/06 00:08:40;;;;;;;23.33;14.60;;;2.20;99.90;;;;;;5020822;28;20049;-75
2021/12/06 00:11:10;;;;;;;19.67;11.57;;;2.20;99.90;;;;;;5046141;28;20041;-74
2021/12/06 00:13:37;;;;;;;24.20;14.77;;;2.20;99.90;;;;;;5052961;28;20119;-74
2021/12/06 00:16:08;;;;;;;22.95;14.98;;;2.20;99.90;;;;;;5029546;28;20496;-74
2021/12/06 00:18:34;;;;;;;21.48;13.93;;;2.20;99.90;;;;;;5025526;28;20092;-75
2021/12/06 00:21:00;;;;;;;23.73;14.75;;;2.30;99.90;;;;;;5045364;28;20071;-75
2021/12/06 00:23:27;;;;;;;26.02;16.20;;;2.30;99.90;;;;;;5039400;28;20281;-74
2021/12/06 00:25:54;;;;;;;26.30;16.20;;;2.30;99.90;;;;;;5046092;28;20064;-75
2021/12/06 00:28:19;;;;;;;23.85;14.57;;;2.30;99.90;;;;;;5047216;28;20045;-76
2021/12/06 00:30:45;;;;;;;25.08;15.77;;;2.20;99.90;;;;;;5059314;28;20391;-75
2021/12/06 00:33:11;;;;;;;24.30;15.13;;;2.20;99.90;;;;;;5028816;28;20510;-75
2021/12/06 00:35:37;;;;;;;23.77;14.75;;;2.10;99.90;;;;;;5051399;28;20101;-75
2021/12/06 00:38:02;;;;;;;22.10;14.30;;;2.10;99.90;;;;;;5041660;28;20045;-74
2021/12/06 00:40:38;;;;;;;21.67;13.88;;;2.10;99.90;;;;;;5025217;28;20427;-75
2021/12/06 00:43:05;;;;;;;17.67;11.70;;;2.10;99.90;;;;;;5047603;28;20049;-75
2021/12/06 00:45:31;;;;;;;19.27;12.38;;;2.20;99.90;;;;;;5041549;28;22028;-75
2021/12/06 00:47:57;;;;;;;20.65;12.52;;;2.20;99.90;;;;;;5025408;28;20057;-76
2021/12/06 00:50:26;;;;;;;18.58;12.40;;;2.20;99.90;;;;;;5017139;28;20042;-75
2021/12/06 00:52:52;;;;;;;20.70;13.43;;;2.30;99.90;;;;;;5035634;28;20103;-75
2021/12/06 00:55:19;;;;;;;27.02;16.42;;;2.30;99.90;;;;;;5019099;28;20053;-74
2021/12/06 00:57:45;;;;;;;26.88;15.95;;;2.30;99.90;;;;;;5022265;28;20044;-74
2021/12/06 01:00:19;;;;;;;28.00;16.02;;;2.30;99.90;;;;;;5048018;28;20098;-74
2021/12/06 01:02:45;;;;;;;30.00;17.75;;;2.30;99.90;;;;;;5037591;28;20049;-75
2021/12/06 01:05:11;;;;;;;30.30;16.42;;;2.30;99.90;;;;;;5036217;28;20067;-74
2021/12/06 01:07:37;;;;;;;30.88;18.05;;;2.40;99.90;;;;;;5055225;28;20048;-75
2021/12/06 01:10:06;;;;;;;33.30;19.40;;;2.30;99.90;;;;;;5053992;28;20049;-74
2021/12/06 01:12:32;;;;;;;32.45;18.08;;;2.40;99.90;;;;;;5058307;28;20045;-75
2021/12/06 01:14:58;;;;;;;37.42;21.27;;;2.40;99.90;;;;;;5046138;28;20044;-75
2021/12/06 01:17:24;;;;;;;33.70;20.52;;;2.40;99.90;;;;;;5036915;28;20048;-75
2021/12/06 01:19:50;;;;;;;34.15;21.42;;;2.30;99.90;;;;;;5038216;28;20048;-76
2021/12/06 01:24:51;;;;;;;34.42;20.17;;;2.30;99.90;;;;;;5034615;28;20045;-75
2021/12/06 01:27:49;;;;;;;32.67;21.35;;;2.30;99.90;;;;;;5054015;28;20044;-74
2021/12/06 01:39:20;;;;;;;40.42;23.02;;;2.30;99.90;;;;;;5013643;28;20500;-75
2021/12/06 01:41:13;;;;;;;39.65;22.63;;;2.30;99.90;;;;;;5019390;28;20044;-75
2021/12/06 01:44:03;;;;;;;40.45;23.45;;;2.30;99.90;;;;;;5032619;28;20064;-76
2021/12/06 01:46:31;;;;;;;36.60;22.25;;;2.20;99.90;;;;;;5026951;28;20721;-75
2021/12/06 01:48:57;;;;;;;38.92;22.25;;;2.20;99.90;;;;;;5055980;28;20040;-75
2021/12/06 01:51:23;;;;;;;40.55;24.30;;;2.30;99.90;;;;;;5052260;28;20044;-75
2021/12/06 01:53:49;;;;;;;41.88;23.08;;;2.30;99.90;;;;;;5036216;28;20101;-76
2021/12/06 01:56:15;;;;;;;44.47;23.08;;;2.30;99.90;;;;;;5031618;28;20033;-75
2021/12/06 01:58:43;;;;;;;40.63;23.90;;;2.30;99.90;;;;;;5022948;28;20469;-75
2021/12/06 02:01:09;;;;;;;42.22;22.63;;;2.30;99.90;;;;;;5026972;28;20048;-75
2021/12/06 02:03:34;;;;;;;44.03;23.35;;;2.40;99.90;;;;;;5039167;28;20147;-76
2021/12/06 02:06:01;;;;;;;40.45;23.52;;;2.30;99.90;;;;;;5034980;28;20052;-76
2021/12/06 02:08:26;;;;;;;37.70;21.70;;;2.40;99.90;;;;;;5035490;28;20602;-75
2021/12/06 02:10:59;;;;;;;38.58;22.10;;;2.40;99.90;;;;;;5032436;28;20044;-75
2021/12/06 02:13:25;;;;;;;35.15;20.00;;;2.40;99.90;;;;;;5036336;28;20131;-75
2021/12/06 02:15:53;;;;;;;36.92;22.13;;;2.40;99.90;;;;;;5038108;28;20049;-76
2021/12/06 02:21:31;;;;;;;37.13;21.20;;;2.40;99.90;;;;;;5033085;28;20040;-74
2021/12/06 02:23:58;;;;;;;39.97;23.38;;;2.40;99.90;;;;;;5030536;28;20041;-76
2021/12/06 02:26:25;;;;;;;43.33;23.55;;;2.40;99.90;;;;;;5030610;28;20044;-75
2021/12/06 02:28:52;;;;;;;40.50;21.95;;;2.40;99.90;;;;;;5050373;28;20047;-75
2021/12/06 02:31:22;;;;;;;43.05;24.98;;;2.50;99.90;;;;;;5030389;28;20040;-75
2021/12/06 02:33:49;;;;;;;40.78;23.00;;;2.40;99.90;;;;;;5046202;28;20466;-76
2021/12/06 02:36:17;;;;;;;41.17;23.60;;;2.50;99.90;;;;;;5065008;28;20057;-76
2021/12/06 02:38:43;;;;;;;44.47;24.48;;;2.40;99.90;;;;;;5053164;28;20101;-76
2021/12/06 02:41:09;;;;;;;44.03;23.85;;;2.50;99.90;;;;;;5046879;28;20052;-75
2021/12/06 02:43:36;;;;;;;45.30;23.27;;;2.40;99.90;;;;;;5069604;28;20130;-76
2021/12/06 02:46:04;;;;;;;43.38;23.02;;;2.50;99.90;;;;;;5048472;28;20049;-74
2021/12/06 02:48:31;;;;;;;40.80;22.85;;;2.50;99.90;;;;;;5043022;28;20091;-75
2021/12/06 02:51:00;;;;;;;42.20;23.60;;;2.40;99.90;;;;;;5028994;28;20114;-75
2021/12/06 02:53:27;;;;;;;41.00;23.58;;;2.50;99.90;;;;;;5045812;28;20041;-76
2021/12/06 02:55:57;;;;;;;42.60;23.48;;;2.50;99.90;;;;;;5029088;28;20484;-76
2021/12/06 03:01:06;;;;;;;46.47;24.52;;;2.50;99.90;;;;;;5042657;28;20044;-74
2021/12/06 03:03:32;;;;;;;45.45;24.52;;;2.50;99.90;;;;;;5026771;28;20055;-77
2021/12/06 03:05:58;;;;;;;47.03;24.42;;;2.50;99.90;;;;;;5046638;28;20458;-76
2021/12/06 03:08:45;;;;;;;44.78;23.58;;;2.50;99.90;;;;;;5024825;28;20048;-75
2021/12/06 03:11:34;;;;;;;44.42;25.05;;;2.50;99.90;;;;;;5031183;28;20045;-76
2021/12/06 03:14:01;;;;;;;50.33;26.23;;;2.50;99.90;;;;;;5039483;28;21384;-74
2021/12/06 03:16:27;;;;;;;47.35;25.48;;;2.50;99.90;;;;;;5046936;28;20542;-75
2021/12/06 03:18:54;;;;;;;45.60;24.45;;;2.50;99.90;;;;;;5060098;28;20052;-76
2021/12/06 03:21:21;;;;;;;43.80;24.27;;;2.50;99.90;;;;;;5067257;28;20055;-76
2021/12/06 03:23:48;;;;;;;48.25;25.17;;;2.50;99.90;;;;;;5066651;28;20036;-75
2021/12/06 03:26:14;;;;;;;47.97;24.65;;;2.50;99.90;;;;;;5055329;28;20098;-75
2021/12/06 03:28:42;;;;;;;45.65;24.77;;;2.50;99.90;;;;;;5047465;28;20116;-75
2021/12/06 03:31:09;;;;;;;49.20;25.27;;;2.50;99.90;;;;;;5050824;28;20049;-75
2021/12/06 03:33:37;;;;;;;44.85;23.77;;;2.50;99.90;;;;;;5056181;28;20055;-75
2021/12/06 03:36:07;;;;;;;46.33;25.58;;;2.50;99.90;;;;;;5050218;28;20103;-73
2021/12/06 03:38:34;;;;;;;45.30;23.30;;;2.50;99.90;;;;;;5057099;28;20049;-74
2021/12/06 03:41:01;;;;;;;43.88;23.83;;;2.50;99.90;;;;;;5048859;28;20415;-76
2021/12/06 03:43:26;;;;;;;48.65;24.83;;;2.50;99.90;;;;;;5047883;28;20036;-76
2021/12/06 03:45:52;;;;;;;53.20;26.17;;;2.50;99.90;;;;;;5052076;28;20052;-74
2021/12/06 03:48:17;;;;;;;53.78;27.75;;;2.40;99.90;;;;;;5050356;28;20039;-75
2021/12/06 03:50:44;;;;;;;55.88;26.48;;;2.40;99.90;;;;;;5050046;28;20064;-75
2021/12/06 03:53:09;;;;;;;52.30;26.02;;;2.50;99.90;;;;;;5037244;28;20136;-75
2021/12/06 03:55:35;;;;;;;55.20;27.40;;;2.50;99.90;;;;;;5052564;28;20155;-75
2021/12/06 03:58:01;;;;;;;52.97;26.02;;;2.40;99.90;;;;;;5048960;28;20047;-73
2021/12/06 04:00:27;;;;;;;55.10;27.63;;;2.50;99.90;;;;;;5046928;28;20041;-76
2021/12/06 04:02:53;;;;;;;50.17;27.20;;;2.40;99.90;;;;;;5052661;28;20053;-75
2021/12/06 04:05:19;;;;;;;51.78;26.15;;;2.40;99.90;;;;;;5057226;28;20071;-75
2021/12/06 04:07:46;;;;;;;60.45;28.67;;;2.40;99.90;;;;;;5052676;28;20102;-76
2021/12/06 04:10:12;;;;;;;53.95;27.08;;;2.40;99.90;;;;;;5051852;28;20114;-75
2021/12/06 04:12:38;;;;;;;51.10;26.20;;;2.50;99.90;;;;;;5050924;28;20491;-76
2021/12/06 04:15:08;;;;;;;61.05;28.27;;;2.50;99.90;;;;;;5047327;28;20044;-76
2021/12/06 04:17:34;;;;;;;62.42;29.02;;;2.50;99.90;;;;;;5052770;28;20513;-76
2021/12/06 04:20:03;;;;;;;63.08;29.02;;;2.40;99.90;;;;;;5049487;28;20543;-74
2021/12/06 04:22:28;;;;;;;67.30;30.38;;;2.40;99.90;;;;;;5050093;28;20103;-75
2021/12/06 04:24:54;;;;;;;63.83;30.08;;;2.40;99.90;;;;;;5052075;28;20052;-75
2021/12/06 04:27:21;;;;;;;66.45;31.27;;;2.50;99.90;;;;;;5056748;28;20053;-75
2021/12/06 04:29:51;;;;;;;70.00;32.13;;;2.40;99.90;;;;;;5059375;28;20049;-76
2021/12/06 04:32:17;;;;;;;64.20;30.38;;;2.40;99.90;;;;;;5054330;28;20334;-74
2021/12/06 04:34:43;;;;;;;70.18;29.63;;;2.40;99.90;;;;;;5052320;28;20052;-74
2021/12/06 04:37:09;;;;;;;72.60;32.00;;;2.40;99.90;;;;;;5048522;28;20040;-75
2021/12/06 04:39:36;;;;;;;72.22;32.70;;;2.40;99.90;;;;;;5049930;28;20519;-77
2021/12/06 04:42:03;;;;;;;70.50;30.75;;;2.40;99.90;;;;;;5058353;28;20041;-73
2021/12/06 04:44:29;;;;;;;66.47;31.55;;;2.40;99.90;;;;;;5047277;28;20618;-74
2021/12/06 04:46:55;;;;;;;71.53;30.30;;;2.40;99.90;;;;;;5031542;28;20037;-73
2021/12/06 04:49:24;;;;;;;67.70;28.50;;;2.50;99.90;;;;;;5057111;28;20049;-73
2021/12/06 04:51:51;;;;;;;60.80;27.13;;;2.50;99.90;;;;;;5053638;28;20403;-73
2021/12/06 04:54:19;;;;;;;62.38;27.98;;;2.50;99.90;;;;;;5052851;28;20072;-73
2021/12/06 04:56:52;;;;;;;67.22;28.40;;;2.50;99.90;;;;;;5049292;28;20048;-73
2021/12/06 04:59:22;;;;;;;;;;;2.50;99.90;;;;;;5042326;28;20045;-74
2021/12/06 05:01:49;;;;;;;68.30;27.23;;;2.50;99.90;;;;;;5055067;28;19924;-73
2021/12/06 05:04:19;;;;;;;67.30;28.77;;;2.40;99.90;;;;;;5046538;28;20041;-73
2021/12/06 05:06:50;;;;;;;69.75;29.50;;;2.40;99.90;;;;;;5051264;28;20048;-73
2021/12/06 05:09:26;;;;;;;70.35;29.83;;;2.40;99.90;;;;;;5050562;28;20057;-72
2021/12/06 05:11:52;;;;;;;66.47;29.65;;;2.50;99.90;;;;;;5049157;28;20450;-72
2021/12/06 05:14:18;;;;;;;71.32;29.88;;;2.40;99.90;;;;;;5053471;28;20087;-72
2021/12/06 05:16:44;;;;;;;74.47;30.70;;;2.40;99.90;;;;;;5031887;28;20040;-74
2021/12/06 05:19:10;;;;;;;75.45;29.77;;;2.40;99.90;;;;;;5049446;28;20041;-72
2021/12/06 05:21:36;;;;;;;72.55;30.35;;;2.40;99.90;;;;;;5045820;28;20045;-73
2021/12/06 05:24:05;;;;;;;77.38;30.48;;;2.50;99.90;;;;;;5052625;28;20045;-73
2021/12/06 05:26:31;;;;;;;74.75;29.58;;;2.50;99.90;;;;;;5049969;28;20067;-73
2021/12/06 05:29:00;;;;;;;73.65;29.58;;;2.40;99.90;;;;;;5062121;28;20490;-73
2021/12/06 05:31:26;;;;;;;76.18;30.73;;;2.40;99.90;;;;;;5050366;28;20092;-73
2021/12/06 05:33:56;;;;;;;78.78;31.48;;;2.50;99.90;;;;;;5065586;28;20053;-75
2021/12/06 05:36:22;;;;;;;83.43;31.85;;;2.40;99.90;;;;;;5069047;28;20053;-73
2021/12/06 05:38:51;;;;;;;71.88;28.55;;;2.50;99.90;;;;;;5072162;28;20510;-73
2021/12/06 05:41:17;;;;;;;84.00;32.25;;;2.50;99.90;;;;;;5073059;28;20033;-74
2021/12/06 05:43:42;;;;;;;72.53;31.20;;;2.40;99.90;;;;;;5051010;28;20093;-74
2021/12/06 05:46:08;;;;;;;79.05;31.35;;;2.40;99.90;;;;;;5042515;28;20048;-73
2021/12/06 05:48:34;;;;;;;72.75;30.98;;;2.40;99.90;;;;;;5057885;28;20060;-72
2021/12/06 05:50:59;;;;;;;74.95;29.40;;;2.40;99.90;;;;;;5038685;28;20045;-72
2021/12/06 05:53:25;;;;;;;69.07;29.42;;;2.50;99.90;;;;;;5025716;28;20124;-71
2021/12/06 05:55:51;;;;;;;70.47;29.10;;;2.50;99.90;;;;;;5050684;28;20127;-72
2021/12/06 05:58:20;;;;;;;69.88;28.55;;;2.40;99.90;;;;;;5017721;28;20041;-69
2021/12/06 06:00:50;;;;;;;65.88;27.85;;;2.50;99.90;;;;;;5052739;28;20044;-72
2021/12/06 06:03:16;;;;;;;67.53;28.08;;;2.50;99.90;;;;;;5052737;28;20054;-71
2021/12/06 06:05:42;;;;;;;66.75;28.13;;;2.50;99.90;;;;;;5049289;28;20045;-72
2021/12/06 06:08:08;;;;;;;66.10;28.50;;;2.50;99.90;;;;;;5050206;28;20049;-72
2021/12/06 06:10:35;;;;;;;69.00;27.42;;;2.50;99.90;;;;;;5071563;28;20592;-73
2021/12/06 06:13:04;;;;;;;66.47;28.50;;;2.50;99.90;;;;;;5067433;28;20526;-73
2021/12/06 06:15:30;;;;;;;69.28;28.65;;;2.50;99.90;;;;;;5049664;28;20073;-73
2021/12/06 06:18:00;;;;;;;65.75;28.35;;;2.50;99.90;;;;;;5067893;28;20048;-73
2021/12/06 06:20:49;;;;;;;66.28;27.88;;;2.50;99.90;;;;;;5060555;28;20041;-73
2021/12/06 06:23:15;;;;;;;63.17;28.52;;;2.50;99.90;;;;;;5044332;28;20559;-73
2021/12/06 06:25:41;;;;;;;67.13;28.52;;;2.50;99.90;;;;;;5031346;28;20055;-73
2021/12/06 06:28:07;;;;;;;58.85;26.25;;;2.50;99.90;;;;;;5046548;28;20040;-73
2021/12/06 06:30:33;;;;;;;67.45;27.40;;;2.60;99.90;;;;;;5029769;28;20069;-74
2021/12/06 06:33:00;;;;;;;62.28;27.45;;;2.50;99.90;;;;;;5043064;28;20045;-73
2021/12/06 06:35:27;;;;;;;61.95;26.45;;;2.60;99.90;;;;;;5027861;28;20480;-72
2021/12/06 06:37:53;;;;;;;63.60;27.23;;;2.50;99.90;;;;;;5028752;28;20049;-73
2021/12/06 06:40:19;;;;;;;66.50;26.90;;;2.60;99.90;;;;;;5027874;28;20065;-73
2021/12/06 06:42:45;;;;;;;66.35;27.00;;;2.60;99.90;;;;;;5028347;28;20038;-75
2021/12/06 06:45:14;;;;;;;62.40;26.77;;;2.60;99.90;;;;;;5044103;28;20047;-72
2021/12/06 06:47:40;;;;;;;56.63;24.27;;;2.60;99.90;;;;;;5029484;28;20068;-72
2021/12/06 06:50:07;;;;;;;52.17;23.48;;;2.60;99.90;;;;;;5027849;28;20045;-72
2021/12/06 06:52:33;;;;;;;63.72;29.05;;;2.60;99.90;;;;;;5028804;28;20060;-71
2021/12/06 06:54:59;;;;;;;61.78;27.27;;;2.60;99.90;;;;;;5031399;28;20094;-72
2021/12/06 06:57:26;;;;;;;65.85;26.52;;;2.60;99.90;;;;;;5024957;28;20108;-73
2021/12/06 06:59:52;;;;;;;65.75;26.38;;;2.60;99.90;;;;;;5021347;28;20614;-73
2021/12/06 07:02:18;;;;;;;58.67;26.77;;;2.70;99.90;;;;;;5022560;28;20048;-72
2021/12/06 07:04:44;;;;;;;61.63;26.13;;;2.60;99.90;;;;;;5024354;28;20116;-72
2021/12/06 07:07:09;;;;;;;60.72;27.63;;;2.70;99.90;;;;;;5024650;28;20069;-72
2021/12/06 07:09:35;;;;;;;58.75;25.35;;;2.60;99.90;;;;;;5023946;28;20069;-72
2021/12/06 07:12:01;;;;;;;56.30;25.17;;;2.60;99.90;;;;;;5016804;28;20041;-71
2021/12/06 07:14:27;;;;;;;57.83;23.48;;;2.70;99.90;;;;;;5028118;28;20503;-72
2021/12/06 07:16:53;;;;;;;60.78;25.73;;;2.60;99.90;;;;;;5042069;28;20040;-72
2021/12/06 07:19:19;;;;;;;62.28;25.85;;;2.70;99.90;;;;;;5045584;28;20045;-74
2021/12/06 07:21:45;;;;;;;59.53;25.92;;;2.60;99.90;;;;;;5022575;28;20446;-71
2021/12/06 07:24:11;;;;;;;63.67;27.35;;;2.60;99.90;;;;;;5049529;28;20064;-72
2021/12/06 07:26:37;;;;;;;65.05;27.17;;;2.60;99.90;;;;;;5031487;28;20056;-72
2021/12/06 07:29:03;;;;;;;65.75;27.63;;;2.70;99.90;;;;;;5040056;28;20052;-72
2021/12/06 07:31:29;;;;;;;57.38;25.35;;;2.70;99.90;;;;;;5046072;28;20055;-72
2021/12/06 07:33:55;;;;;;;59.72;25.60;;;2.70;99.90;;;;;;5029720;28;20132;-71
2021/12/06 07:36:25;;;;;;;63.80;26.75;;;2.70;99.90;;;;;;5042850;28;20048;-73
2021/12/06 07:38:51;;;;;;;62.47;26.13;;;2.70;99.90;;;;;;5037897;28;20051;-71
2021/12/06 07:41:19;;;;;;;65.75;28.35;;;2.70;99.90;;;;;;5052754;28;20044;-71
2021/12/06 07:43:46;;;;;;;57.22;24.65;;;2.70;99.90;;;;;;5047617;28;20500;-75
2021/12/06 07:46:12;;;;;;;57.75;24.15;;;2.70;99.90;;;;;;5045164;28;20056;-74
2021/12/06 07:48:38;;;;;;;66.40;26.83;;;2.70;99.90;;;;;;5024023;28;20048;-76
2021/12/06 07:51:05;;;;;;;63.10;27.25;;;2.70;99.90;;;;;;5030639;28;20141;-73
2021/12/06 07:53:33;;;;;;;57.60;25.48;;;2.70;99.90;;;;;;5021137;28;20051;-72
2021/12/06 07:55:59;;;;;;;69.88;27.25;;;2.70;99.90;;;;;;5038439;28;20556;-72
2021/12/06 07:58:25;;;;;;;66.43;27.60;;;2.70;99.90;;;;;;5028098;28;20044;-72
2021/12/06 08:00:52;;;;;;;68.13;27.05;;;2.70;99.90;;;;;;5036855;28;20049;-72
2021/12/06 08:03:22;;;;;;;81.60;29.67;;;2.70;99.90;;;;;;5031500;28;20045;-71
2021/12/06 08:05:50;;;;;;;80.90;28.88;;;2.70;99.90;;;;;;5029868;28;20060;-71
2021/12/06 08:08:19;;;;;;;89.53;30.42;;;2.70;99.90;;;;;;5033184;28;20055;-72
2021/12/06 08:10:48;;;;;;;87.15;29.02;;;2.70;99.90;;;;;;5020160;28;20512;-72
2021/12/06 08:13:16;;;;;;;82.05;30.10;;;2.70;99.90;;;;;;5035448;28;20047;-71
2021/12/06 08:15:43;;;;;;;102.65;31.35;;;2.70;99.90;;;;;;5042581;28;20504;-71
2021/12/06 08:18:09;;;;;;;98.97;29.70;;;2.70;99.90;;;;;;5049442;28;20037;-70
2021/12/06 08:20:37;;;;;;;96.35;31.73;;;2.70;99.90;;;;;;5052849;28;20106;-71
2021/12/06 08:23:04;;;;;;;83.40;26.95;;;2.70;99.90;;;;;;5049838;28;20049;-73
2021/12/06 08:25:29;;;;;;;110.10;30.98;;;2.70;99.90;;;;;;5044428;28;20068;-72
2021/12/06 08:27:55;;;;;;;116.43;32.08;;;2.80;99.90;;;;;;5048485;28;20080;-72
2021/12/06 08:30:22;;;;;;;102.13;29.73;;;2.80;99.90;;;;;;5048329;28;20118;-73
2021/12/06 08:32:53;;;;;;;107.72;33.45;;;2.80;99.90;;;;;;5062290;28;20040;-72
2021/12/06 08:35:19;;;;;;;106.70;32.55;;;2.80;99.90;;;;;;5044356;28;20060;-72
2021/12/06 08:37:46;;;;;;;104.72;30.02;;;2.80;99.90;;;;;;5061415;28;20060;-73
2021/12/06 08:40:12;;;;;;;104.63;30.33;;;2.80;99.90;;;;;;5051963;28;20039;-73
2021/12/06 08:42:38;;;;;;;124.25;33.30;;;2.80;99.90;;;;;;5073340;28;20036;-74
2021/12/06 08:45:05;;;;;;;129.80;35.45;;;2.80;99.90;;;;;;5075361;28;20044;-73
2021/12/06 08:47:31;;;;;;;122.72;34.50;;;2.80;99.90;;;;;;5029964;28;20551;-73
2021/12/06 08:49:57;;;;;;;121.78;31.60;;;2.90;99.90;;;;;;5048023;28;20033;-72
2021/12/06 08:52:23;;;;;;;136.45;32.75;;;2.90;99.90;;;;;;5045135;28;20056;-72
2021/12/06 08:54:49;;;;;;;118.28;34.08;;;2.90;99.90;;;;;;5046501;28;20094;-72
2021/12/06 08:57:16;;;;;;;144.32;35.15;;;2.90;99.90;;;;;;5047693;28;20049;-72
2021/12/06 08:59:42;;;;;;;130.85;33.65;;;2.90;99.90;;;;;;5047187;28;20068;-72
2021/12/06 09:02:08;;;;;;;121.68;33.20;;;2.90;99.90;;;;;;5047841;28;20071;-71
2021/12/06 09:04:38;;;;;;;109.78;32.05;;;2.90;99.90;;;;;;5049001;28;20048;-73
2021/12/06 09:07:11;;;;;;;114.72;31.20;;;2.90;99.90;;;;;;5024077;28;20074;-72
2021/12/06 09:09:45;;;;;;;108.80;32.33;;;2.90;99.90;;;;;;5028323;28;20064;-72
2021/12/06 09:12:11;;;;;;;111.18;31.48;;;3.00;99.90;;;;;;5044041;28;20041;-72
2021/12/06 09:14:36;;;;;;;116.70;33.80;;;3.00;99.90;;;;;;5027508;28;20481;-72
2021/12/06 09:17:02;;;;;;;112.72;31.88;;;3.00;99.90;;;;;;5047452;28;20107;-73
2021/12/06 09:19:28;;;;;;;102.18;28.17;;;3.00;99.90;;;;;;5046579;28;20044;-72
2021/12/06 09:21:54;;;;;;;123.10;32.78;;;3.00;99.90;;;;;;5028952;28;20542;-73
2021/12/06 09:24:20;;;;;;;131.15;34.10;;;3.00;99.90;;;;;;5029064;28;20172;-73
2021/12/06 09:26:46;;;;;;;130.70;33.25;;;3.10;99.90;;;;;;5045250;28;20037;-73
2021/12/06 09:29:12;;;;;;;141.55;36.85;;;3.10;99.90;;;;;;5026101;28;20052;-73
2021/12/06 09:31:39;;;;;;;135.02;34.40;;;3.10;99.90;;;;;;5029310;28;20083;-72
2021/12/06 09:34:05;;;;;;;115.65;31.20;;;3.20;99.90;;;;;;5048111;28;20064;-73
2021/12/06 09:36:33;;;;;;;146.02;38.33;;;3.20;99.90;;;;;;5057895;28;20421;-73
2021/12/06 09:38:59;;;;;;;128.98;35.47;;;3.20;99.90;;;;;;5056691;28;20040;-72
2021/12/06 09:41:27;;;;;;;126.20;33.17;;;3.20;99.90;;;;;;5049901;28;20295;-72
2021/12/06 09:43:56;;;;;;;121.30;33.92;;;3.20;99.90;;;;;;5050317;28;20109;-72
2021/12/06 09:46:22;;;;;;;118.40;34.97;;;3.20;99.90;;;;;;5046714;28;20049;-72
2021/12/06 09:48:49;;;;;;;125.55;35.45;;;3.20;99.90;;;;;;5047516;28;20124;-73
2021/12/06 09:51:21;;;;;;;124.15;35.72;;;3.30;99.90;;;;;;5048469;28;20606;-73
2021/12/06 09:53:49;;;;;;;122.43;36.15;;;3.30;99.90;;;;;;5048944;28;20116;-72
2021/12/06 09:56:18;;;;;;;119.75;36.25;;;3.30;99.90;;;;;;5046432;28;20159;-73
2021/12/06 09:58:44;;;;;;;96.88;30.08;;;3.30;99.90;;;;;;5049318;28;20044;-73
2021/12/06 10:01:20;;;;;;;92.78;31.65;;;3.30;99.90;;;;;;5046647;28;20175;-72
2021/12/06 10:03:48;;;;;;;111.97;35.45;;;3.30;99.90;;;;;;5046821;28;20523;-72
2021/12/06 10:06:16;;;;;;;98.40;34.33;;;3.40;99.90;;;;;;5049378;28;20399;-73
2021/12/06 10:08:44;;;;;;;100.05;34.45;;;3.40;99.90;;;;;;5051887;28;20045;-71
2021/12/06 10:11:12;;;;;;;79.05;27.83;;;3.40;99.90;;;;;;5049628;28;20183;-71
2021/12/06 10:13:39;;;;;;;81.47;28.65;;;3.40;99.90;;;;;;5047853;28;20133;-71
2021/12/06 10:16:06;;;;;;;85.93;32.95;;;3.40;99.90;;;;;;5047732;28;20048;-71
2021/12/06 10:18:32;;;;;;;76.70;28.38;;;3.40;99.90;;;;;;5048284;28;20511;-71
2021/12/06 10:20:58;;;;;;;67.97;27.90;;;3.40;99.90;;;;;;5048717;28;20040;-71
2021/12/06 10:23:24;;;;;;;72.07;29.90;;;3.40;99.90;;;;;;5048049;28;20495;-72
2021/12/06 10:25:53;;;;;;;74.60;30.30;;;3.40;99.90;;;;;;5047201;28;20055;-73
2021/12/06 10:28:23;;;;;;;73.53;30.88;;;3.40;99.90;;;;;;5043321;28;20520;-73
2021/12/06 10:30:53;;;;;;;74.00;29.75;;;3.30;99.90;;;;;;5045262;28;20048;-73
2021/12/06 10:33:26;;;;;;;54.92;23.63;;;3.30;99.90;;;;;;5051834;28;20111;-72
2021/12/06 10:35:58;;;;;;;69.43;30.20;;;3.30;99.90;;;;;;5071968;28;20450;-72
2021/12/06 10:38:32;;;;;;;68.10;28.35;;;3.30;99.90;;;;;;5050297;28;20040;-72
2021/12/06 10:40:59;;;;;;;68.35;29.23;;;3.30;99.90;;;;;;5067050;28;20048;-72
2021/12/06 10:43:25;;;;;;;69.25;27.30;;;3.40;99.90;;;;;;5071823;28;20092;-72
2021/12/06 10:45:51;;;;;;;69.13;30.00;;;3.30;99.90;;;;;;5049359;28;20033;-72
2021/12/06 10:48:26;;;;;;;70.65;28.75;;;3.40;99.90;;;;;;5052937;28;20055;-73
2021/12/06 10:50:51;;;;;;;78.43;28.40;;;3.40;99.90;;;;;;5064425;28;20031;-73
2021/12/06 10:53:27;;;;;;;58.28;25.33;;;3.40;99.90;;;;;;5067624;28;20056;-72
2021/12/06 10:55:55;;;;;;;62.75;25.85;;;3.50;99.90;;;;;;5070392;28;20041;-73
2021/12/06 10:58:26;;;;;;;50.22;20.83;;;3.40;99.90;;;;;;5051917;28;20067;-74
2021/12/06 11:00:53;;;;;;;69.38;27.08;;;3.30;99.90;;;;;;5049498;28;20381;-72
2021/12/06 11:03:35;;;;;;;70.88;28.95;;;3.30;99.90;;;;;;5068847;28;20544;-72
2021/12/06 11:06:08;;;;;;;69.80;28.15;;;3.30;99.90;;;;;;5061635;28;20052;-73
2021/12/06 11:08:35;;;;;;;74.93;27.50;;;3.20;99.90;;;;;;5070160;28;20303;-72
2021/12/06 11:11:16;;;;;;;71.15;26.95;;;3.20;99.90;;;;;;5067791;28;20040;-73
2021/12/06 11:13:46;;;;;;;80.85;29.08;;;3.10;99.90;;;;;;5052625;28;20110;-72
2021/12/06 11:16:20;;;;;;;77.50;27.88;;;3.10;99.90;;;;;;5050721;28;20619;-73
2021/12/06 11:18:55;;;;;;;78.80;30.02;;;3.10;99.90;;;;;;5050082;28;20075;-74
2021/12/06 11:21:28;;;;;;;85.85;28.92;;;3.10;99.90;;;;;;5071787;28;20079;-72
2021/12/06 11:24:20;;;;;;;78.60;27.77;;;3.10;99.90;;;;;;5054741;28;20088;-73
2021/12/06 11:26:50;;;;;;;92.78;30.65;;;3.10;99.90;;;;;;5049031;28;20045;-73
2021/12/06 11:29:22;;;;;;;86.80;30.00;;;3.10;99.90;;;;;;5051207;28;20051;-72
2021/12/06 11:31:55;;;;;;;93.30;31.58;;;3.10;99.90;;;;;;5061045;28;20059;-72
2021/12/06 11:34:25;;;;;;;87.13;30.40;;;3.10;99.90;;;;;;5068755;28;20111;-72
2021/12/06 11:36:52;;;;;;;99.97;31.77;;;3.10;99.90;;;;;;5069199;28;20512;-73
2021/12/06 11:39:19;;;;;;;89.13;30.65;;;3.10;99.90;;;;;;5051650;28;20128;-74
2021/12/06 11:41:50;;;;;;;84.95;29.17;;;3.10;99.90;;;;;;5069724;28;20110;-71
2021/12/06 11:44:34;;;;;;;95.68;31.38;;;3.10;99.90;;;;;;5066073;28;20498;-72
2021/12/06 11:47:08;;;;;;;93.70;31.90;;;3.10;99.90;;;;;;5066148;28;20068;-71
2021/12/06 11:49:40;;;;;;;94.38;31.80;;;3.10;99.90;;;;;;5069112;28;20049;-71
2021/12/06 11:52:10;;;;;;;98.73;33.13;;;3.10;99.90;;;;;;5069182;28;20040;-71
2021/12/06 11:54:44;;;;;;;111.68;34.70;;;3.20;99.90;;;;;;5051293;28;20048;-70
2021/12/06 11:57:13;;;;;;;93.22;32.28;;;3.10;99.90;;;;;;5066559;28;20472;-73
2021/12/06 12:00:05;;;;;;;94.53;31.90;;;3.20;99.90;;;;;;5068662;28;20235;-72
2021/12/06 12:02:36;;;;;;;100.95;31.27;;;3.20;99.90;;;;;;5046957;28;20188;-72
2021/12/06 12:05:18;;;;;;;107.68;31.33;;;3.20;99.90;;;;;;5046800;28;20403;-72
2021/12/06 12:08:01;;;;;;;102.85;32.30;;;3.10;99.90;;;;;;5049196;28;20102;-72
2021/12/06 12:10:27;;;;;;;67.13;22.30;;;3.10;99.90;;;;;;5068511;28;20057;-72
2021/12/06 12:12:54;;;;;;;90.20;30.15;;;3.10;99.90;;;;;;5069131;28;20279;-73
2021/12/06 12:15:19;;;;;;;96.82;32.53;;;3.20;99.90;;;;;;5048994;28;20072;-73
2021/12/06 12:17:49;;;;;;;96.80;31.58;;;3.20;99.90;;;;;;5047909;28;20072;-71
2021/12/06 12:20:15;;;;;;;105.70;35.50;;;3.20;99.90;;;;;;5071959;28;20053;-71
2021/12/06 12:22:44;;;;;;;99.20;33.47;;;3.30;99.90;;;;;;5055235;28;20055;-72
2021/12/06 12:25:19;;;;;;;96.93;32.67;;;3.30;99.90;;;;;;5054114;28;20117;-70
2021/12/06 12:27:56;;;;;;;101.25;31.20;;;3.20;99.90;;;;;;5055293;28;20040;-71
2021/12/06 12:30:22;;;;;;;97.97;32.22;;;3.20;99.90;;;;;;5054620;28;20123;-71
2021/12/06 12:32:48;;;;;;;101.85;33.08;;;3.30;99.90;;;;;;5066673;28;20132;-71
2021/12/06 12:35:15;;;;;;;97.25;32.78;;;3.30;99.90;;;;;;5054435;28;20041;-70
2021/12/06 12:37:42;;;;;;;95.97;34.60;;;3.30;99.90;;;;;;5050086;28;20938;-71
2021/12/06 12:40:12;;;;;;;94.53;32.60;;;3.30;99.90;;;;;;5053409;28;20499;-71
2021/12/06 12:42:38;;;;;;;96.55;33.65;;;3.30;99.90;;;;;;5052115;28;20136;-72
2021/12/06 12:45:06;;;;;;;93.78;32.30;;;3.30;99.90;;;;;;5051451;28;20048;-71
2021/12/06 12:47:33;;;;;;;108.40;35.00;;;3.40;99.90;;;;;;5052898;28;20072;-72
2021/12/06 12:50:12;;;;;;;105.43;36.13;;;3.40;99.90;;;;;;5042058;28;20048;-72
2021/12/06 12:52:41;;;;;;;107.35;34.72;;;3.40;99.90;;;;;;5045615;28;20470;-72
2021/12/06 12:55:19;;;;;;;100.28;35.08;;;3.50;99.90;;;;;;5028983;28;20053;-72
2021/12/06 12:57:44;;;;;;;99.68;37.28;;;3.50;99.90;;;;;;5050228;28;20048;-72